sensor_id;sensor_type;location;lat;lon;timestamp;pressure;altitude;pressure_sealevel;temperature;humidity
2268;BME280;11052;43.338;25.502;2023-11-21T00:00:14;100478.28;;;3.71;100.00
2268;BME280;11052;43.338;25.502;2023-11-21T00:02:44;100481.69;;;3.66;100.00
2268;BME280;11052;43.338;25.502;2023-11-21T00:05:13;100484.25;;;3.72;100.00
2268;BME280;11052;43.338;25.502;2023-11-21T00:07:41;100487.66;;;3.66;100.00
2268;BME280;11052;43.338;25.502;2023-11-21T00:10:11;100496.22;;;3.68;100.00
2268;BME280;11052;43.338;25.502;2023-11-21T00:12:39;100497.94;;;3.66;100.00
2268;BME280;11052;43.338;25.502;2023-11-21T00:15:08;100493.66;;;3.62;100.00
2268;BME280;11052;43.338;25.502;2023-11-21T00:17:36;100491.94;;;3.55;100.00
2268;BME280;11052;43.338;25.502;2023-11-21T00:20:05;100491.06;;;3.51;100.00
2268;BME280;11052;43.338;25.502;2023-11-21T00:22:33;100497.06;;;3.40;100.00
2268;BME280;11052;43.338;25.502;2023-11-21T00:25:00;100491.91;;;3.35;100.00
2268;BME280;11052;43.338;25.502;2023-11-21T00:27:30;100492.78;;;3.40;100.00
2268;BME280;11052;43.338;25.502;2023-11-21T00:29:57;100494.47;;;3.37;100.00
2268;BME280;11052;43.338;25.502;2023-11-21T00:32:25;100491.91;;;3.34;100.00
2268;BME280;11052;43.338;25.502;2023-11-21T00:34:52;100480.81;;;3.30;100.00
2268;BME280;11052;43.338;25.502;2023-11-21T00:37:20;100479.09;;;3.23;100.00
2268;BME280;11052;43.338;25.502;2023-11-21T00:39:47;100473.94;;;3.12;100.00
2268;BME280;11052;43.338;25.502;2023-11-21T00:42:14;100485.06;;;3.20;100.00
2268;BME280;11052;43.338;25.502;2023-11-21T00:44:43;100482.50;;;3.22;100.00
2268;BME280;11052;43.338;25.502;2023-11-21T00:47:10;100482.50;;;3.23;100.00
2268;BME280;11052;43.338;25.502;2023-11-21T00:49:37;100488.47;;;3.25;100.00
2268;BME280;11052;43.338;25.502;2023-11-21T00:52:06;100479.94;;;3.26;100.00
2268;BME280;11052;43.338;25.502;2023-11-21T00:54:33;100479.94;;;3.23;100.00
2268;BME280;11052;43.338;25.502;2023-11-21T00:57:00;100474.81;;;3.20;100.00
2268;BME280;11052;43.338;25.502;2023-11-21T00:59:27;100475.63;;;3.12;100.00
2268;BME280;11052;43.338;25.502;2023-11-21T01:01:57;100467.09;;;3.14;100.00
2268;BME280;11052;43.338;25.502;2023-11-21T01:04:26;100471.34;;;3.02;100.00
2268;BME280;11052;43.338;25.502;2023-11-21T01:06:53;100479.03;;;3.06;100.00
2268;BME280;11052;43.338;25.502;2023-11-21T01:09:20;100467.06;;;3.02;100.00
2268;BME280;11052;43.338;25.502;2023-11-21T01:11:47;100467.91;;;2.98;100.00
2268;BME280;11052;43.338;25.502;2023-11-21T01:14:14;100468.72;;;2.92;100.00
2268;BME280;11052;43.338;25.502;2023-11-21T01:16:43;100477.28;;;2.94;100.00
2268;BME280;11052;43.338;25.502;2023-11-21T01:19:12;100465.34;;;2.95;100.00
2268;BME280;11052;43.338;25.502;2023-11-21T01:21:39;100467.88;;;2.93;100.00
2268;BME280;11052;43.338;25.502;2023-11-21T01:24:06;100467.00;;;2.87;100.00
2268;BME280;11052;43.338;25.502;2023-11-21T01:26:34;100473.84;;;2.86;100.00
2268;BME280;11052;43.338;25.502;2023-11-21T01:29:01;100474.66;;;2.81;100.00
2268;BME280;11052;43.338;25.502;2023-11-21T01:31:28;100476.38;;;2.80;100.00
2268;BME280;11052;43.338;25.502;2023-11-21T01:33:55;100478.03;;;2.75;100.00
2268;BME280;11052;43.338;25.502;2023-11-21T01:36:30;100470.34;;;2.71;100.00
2268;BME280;11052;43.338;25.502;2023-11-21T01:38:58;100460.09;;;2.68;100.00
2268;BME280;11052;43.338;25.502;2023-11-21T01:41:26;100461.78;;;2.59;100.00
2268;BME280;11052;43.338;25.502;2023-11-21T01:43:54;100454.09;;;2.61;100.00
2268;BME280;11052;43.338;25.502;2023-11-21T01:46:22;100459.22;;;2.61;100.00
2268;BME280;11052;43.338;25.502;2023-11-21T01:48:50;100459.22;;;2.62;100.00
2268;BME280;11052;43.338;25.502;2023-11-21T01:51:18;100452.38;;;2.61;100.00
2268;BME280;11052;43.338;25.502;2023-11-21T01:53:47;100456.66;;;2.61;100.00
2268;BME280;11052;43.338;25.502;2023-11-21T01:56:14;100455.81;;;2.62;100.00
2268;BME280;11052;43.338;25.502;2023-11-21T01:58:42;100454.09;;;2.61;100.00
2268;BME280;11052;43.338;25.502;2023-11-21T02:01:12;100449.84;;;2.61;100.00
2268;BME280;11052;43.338;25.502;2023-11-21T02:03:39;100445.59;;;2.59;100.00
2268;BME280;11052;43.338;25.502;2023-11-21T02:06:07;100449.84;;;2.58;100.00
2268;BME280;11052;43.338;25.502;2023-11-21T02:08:35;100444.72;;;2.55;100.00
2268;BME280;11052;43.338;25.502;2023-11-21T02:11:05;100448.97;;;2.52;100.00
2268;BME280;11052;43.338;25.502;2023-11-21T02:13:33;100444.63;;;2.39;100.00
2268;BME280;11052;43.338;25.502;2023-11-21T02:16:01;100444.66;;;2.43;100.00
2268;BME280;11052;43.338;25.502;2023-11-21T02:18:28;100447.22;;;2.42;100.00
2268;BME280;11052;43.338;25.502;2023-11-21T02:20:55;100449.72;;;2.36;100.00
2268;BME280;11052;43.338;25.502;2023-11-21T02:23:24;100447.22;;;2.42;100.00
2268;BME280;11052;43.338;25.502;2023-11-21T02:25:54;100446.34;;;2.38;100.00
2268;BME280;11052;43.338;25.502;2023-11-21T02:28:21;100439.50;;;2.37;100.00
2268;BME280;11052;43.338;25.502;2023-11-21T02:30:51;100441.22;;;2.38;100.00
2268;BME280;11052;43.338;25.502;2023-11-21T02:33:21;100450.56;;;2.32;100.00
2268;BME280;11052;43.338;25.502;2023-11-21T02:35:48;100446.22;;;2.20;100.00
2268;BME280;11052;43.338;25.502;2023-11-21T02:38:17;100445.38;;;2.19;100.00
2268;BME280;11052;43.338;25.502;2023-11-21T02:40:45;100438.53;;;2.17;100.00
2268;BME280;11052;43.338;25.502;2023-11-21T02:43:12;100440.28;;;2.22;100.00
2268;BME280;11052;43.338;25.502;2023-11-21T02:45:39;100429.19;;;2.23;100.00
2268;BME280;11052;43.338;25.502;2023-11-21T02:48:08;100438.59;;;2.24;100.00
2268;BME280;11052;43.338;25.502;2023-11-21T02:50:35;100434.31;;;2.26;100.00
2268;BME280;11052;43.338;25.502;2023-11-21T02:53:03;100436.88;;;2.26;100.00
2268;BME280;11052;43.338;25.502;2023-11-21T02:55:31;100430.84;;;2.14;100.00
2268;BME280;11052;43.338;25.502;2023-11-21T02:58:02;100426.63;;;2.19;100.00
2268;BME280;11052;43.338;25.502;2023-11-21T03:00:30;100424.88;;;2.13;100.00
2268;BME280;11052;43.338;25.502;2023-11-21T03:02:57;100426.50;;;2.02;100.00
2268;BME280;11052;43.338;25.502;2023-11-21T03:05:26;100429.03;;;1.97;100.00
2268;BME280;11052;43.338;25.502;2023-11-21T03:07:54;100424.75;;;1.95;100.00
2268;BME280;11052;43.338;25.502;2023-11-21T03:10:23;100423.09;;;2.00;100.00
2268;BME280;11052;43.338;25.502;2023-11-21T03:12:50;100424.00;;;2.08;100.00
2268;BME280;11052;43.338;25.502;2023-11-21T03:15:19;100427.44;;;2.15;100.00
2268;BME280;11052;43.338;25.502;2023-11-21T03:17:46;100426.59;;;2.17;100.00
2268;BME280;11052;43.338;25.502;2023-11-21T03:20:14;100425.72;;;2.11;100.00
2268;BME280;11052;43.338;25.502;2023-11-21T03:22:42;100419.78;;;2.19;100.00
2268;BME280;11052;43.338;25.502;2023-11-21T03:25:09;100417.25;;;2.19;100.00
2268;BME280;11052;43.338;25.502;2023-11-21T03:27:37;100428.25;;;2.06;100.00
2268;BME280;11052;43.338;25.502;2023-11-21T03:30:09;100428.22;;;2.03;100.00
2268;BME280;11052;43.338;25.502;2023-11-21T03:32:38;100427.31;;;1.96;100.00
2268;BME280;11052;43.338;25.502;2023-11-21T03:35:05;100423.06;;;1.97;100.00
2268;BME280;11052;43.338;25.502;2023-11-21T03:37:33;100423.94;;;1.99;100.00
2268;BME280;11052;43.338;25.502;2023-11-21T03:40:00;100422.22;;;1.98;100.00
2268;BME280;11052;43.338;25.502;2023-11-21T03:42:29;100428.13;;;1.91;100.00
2268;BME280;11052;43.338;25.502;2023-11-21T03:44:56;100424.69;;;1.87;100.00
2268;BME280;11052;43.338;25.502;2023-11-21T03:47:23;100425.56;;;1.89;100.00
2268;BME280;11052;43.338;25.502;2023-11-21T03:49:52;100428.13;;;1.91;100.00
2268;BME280;11052;43.338;25.502;2023-11-21T03:52:19;100428.13;;;1.91;100.00
2268;BME280;11052;43.338;25.502;2023-11-21T03:54:46;100431.53;;;1.88;100.00
2268;BME280;11052;43.338;25.502;2023-11-21T03:57:14;100432.41;;;1.93;100.00
2268;BME280;11052;43.338;25.502;2023-11-21T03:59:41;100433.25;;;1.94;100.00
2268;BME280;11052;43.338;25.502;2023-11-21T04:02:08;100437.50;;;1.90;100.00
2268;BME280;11052;43.338;25.502;2023-11-21T04:04:36;100436.66;;;1.91;100.00
2268;BME280;11052;43.338;25.502;2023-11-21T04:07:05;100440.06;;;1.92;100.00
2268;BME280;11052;43.338;25.502;2023-11-21T04:09:35;100443.47;;;1.92;100.00
2268;BME280;11052;43.338;25.502;2023-11-21T04:12:02;100455.34;;;1.86;100.00
2268;BME280;11052;43.338;25.502;2023-11-21T04:14:30;100453.44;;;1.56;100.00
2268;BME280;11052;43.338;25.502;2023-11-21T04:16:57;100450.06;;;1.61;100.00
2268;BME280;11052;43.338;25.502;2023-11-21T04:19:24;100445.88;;;1.68;100.00
2268;BME280;11052;43.338;25.502;2023-11-21T04:21:51;100451.84;;;1.75;100.00
2268;BME280;11052;43.338;25.502;2023-11-21T04:24:20;100453.56;;;1.70;100.00
2268;BME280;11052;43.338;25.502;2023-11-21T04:26:47;100449.28;;;1.67;100.00
2268;BME280;11052;43.338;25.502;2023-11-21T04:29:14;100454.41;;;1.69;100.00
2268;BME280;11052;43.338;25.502;2023-11-21T04:31:42;100451.00;;;1.70;100.00
2268;BME280;11052;43.338;25.502;2023-11-21T04:34:09;100446.69;;;1.66;100.00
2268;BME280;11052;43.338;25.502;2023-11-21T04:36:36;100449.25;;;1.64;100.00
2268;BME280;11052;43.338;25.502;2023-11-21T04:39:03;100455.94;;;1.51;100.00
2268;BME280;11052;43.338;25.502;2023-11-21T04:41:33;100451.63;;;1.44;100.00
2268;BME280;11052;43.338;25.502;2023-11-21T04:44:02;100459.34;;;1.52;100.00
2268;BME280;11052;43.338;25.502;2023-11-21T04:46:30;100471.34;;;1.59;100.00
2268;BME280;11052;43.338;25.502;2023-11-21T04:48:57;100465.41;;;1.61;100.00
2268;BME280;11052;43.338;25.502;2023-11-21T04:51:25;100473.09;;;1.63;100.00
2268;BME280;11052;43.338;25.502;2023-11-21T04:53:52;100468.78;;;1.57;100.00
2268;BME280;11052;43.338;25.502;2023-11-21T04:56:19;100469.59;;;1.55;100.00
2268;BME280;11052;43.338;25.502;2023-11-21T04:58:48;100468.75;;;1.54;100.00
2268;BME280;11052;43.338;25.502;2023-11-21T05:01:15;100467.94;;;1.58;100.00
2268;BME280;11052;43.338;25.502;2023-11-21T05:03:43;100476.47;;;1.62;100.00
2268;BME280;11052;43.338;25.502;2023-11-21T05:06:10;100475.63;;;1.61;100.00
2268;BME280;11052;43.338;25.502;2023-11-21T05:08:37;100478.19;;;1.61;100.00
2268;BME280;11052;43.338;25.502;2023-11-21T05:11:05;100476.50;;;1.63;100.00
2268;BME280;11052;43.338;25.502;2023-11-21T05:13:34;100478.22;;;1.64;100.00
2268;BME280;11052;43.338;25.502;2023-11-21T05:16:03;100487.56;;;1.62;100.00
2268;BME280;11052;43.338;25.502;2023-11-21T05:18:32;100492.66;;;1.62;100.00
2268;BME280;11052;43.338;25.502;2023-11-21T05:21:00;100496.88;;;1.57;100.00
2268;BME280;11052;43.338;25.502;2023-11-21T05:23:27;100493.50;;;1.60;100.00
2268;BME280;11052;43.338;25.502;2023-11-21T05:25:55;100496.00;;;1.55;100.00
2268;BME280;11052;43.338;25.502;2023-11-21T05:28:22;100491.72;;;1.53;100.00
2268;BME280;11052;43.338;25.502;2023-11-21T05:30:49;100493.44;;;1.54;100.00
2268;BME280;11052;43.338;25.502;2023-11-21T05:33:18;100483.19;;;1.52;100.00
2268;BME280;11052;43.338;25.502;2023-11-21T05:35:45;100486.66;;;1.57;100.00
2268;BME280;11052;43.338;25.502;2023-11-21T05:38:14;100486.78;;;1.73;100.00
2268;BME280;11052;43.338;25.502;2023-11-21T05:40:41;100485.22;;;1.91;100.00
2268;BME280;11052;43.338;25.502;2023-11-21T05:43:09;100483.53;;;1.95;100.00
2268;BME280;11052;43.338;25.502;2023-11-21T05:45:37;100481.00;;;1.98;100.00
2268;BME280;11052;43.338;25.502;2023-11-21T05:48:04;100480.16;;;1.97;100.00
2268;BME280;11052;43.338;25.502;2023-11-21T05:50:33;100484.44;;;2.02;100.00
2268;BME280;11052;43.338;25.502;2023-11-21T05:53:00;100481.97;;;2.14;100.00
2268;BME280;11052;43.338;25.502;2023-11-21T05:55:28;100480.34;;;2.25;100.00
2268;BME280;11052;43.338;25.502;2023-11-21T05:57:55;100480.47;;;2.45;100.00
2268;BME280;11052;43.338;25.502;2023-11-21T06:00:22;100478.94;;;2.86;100.00
2268;BME280;11052;43.338;25.502;2023-11-21T06:02:51;100482.53;;;3.37;100.00
2268;BME280;11052;43.338;25.502;2023-11-21T06:05:23;100493.66;;;3.76;100.00
2268;BME280;11052;43.338;25.502;2023-11-21T06:07:52;100497.94;;;3.71;100.00
2268;BME280;11052;43.338;25.502;2023-11-21T06:10:20;100502.19;;;3.59;100.00
2268;BME280;11052;43.338;25.502;2023-11-21T06:12:47;100498.75;;;3.50;100.00
2268;BME280;11052;43.338;25.502;2023-11-21T06:15:15;100505.59;;;3.48;100.00
2268;BME280;11052;43.338;25.502;2023-11-21T06:17:44;100494.50;;;3.40;100.00
2268;BME280;11052;43.338;25.502;2023-11-21T06:20:15;100495.34;;;3.33;100.00
2268;BME280;11052;43.338;25.502;2023-11-21T06:22:45;100502.13;;;3.23;100.00
2268;BME280;11052;43.338;25.502;2023-11-21T06:25:14;100503.81;;;3.19;100.00
2268;BME280;11052;43.338;25.502;2023-11-21T06:27:44;100502.97;;;3.16;100.00
2268;BME280;11052;43.338;25.502;2023-11-21T06:30:13;100492.69;;;3.04;100.00
2268;BME280;11052;43.338;25.502;2023-11-21T06:32:41;100496.94;;;3.00;100.00
2268;BME280;11052;43.338;25.502;2023-11-21T06:35:11;100489.22;;;2.94;100.00
2268;BME280;11052;43.338;25.502;2023-11-21T06:37:39;100503.75;;;2.96;100.00
2268;BME280;11052;43.338;25.502;2023-11-21T06:40:07;100513.19;;;3.07;100.00
2268;BME280;11052;43.338;25.502;2023-11-21T06:42:37;100511.47;;;3.04;100.00
2268;BME280;11052;43.338;25.502;2023-11-21T06:45:06;100506.31;;;3.01;100.00
2268;BME280;11052;43.338;25.502;2023-11-21T06:47:33;100503.78;;;3.03;100.00
2268;BME280;11052;43.338;25.502;2023-11-21T06:50:00;100499.53;;;3.08;100.00
2268;BME280;11052;43.338;25.502;2023-11-21T06:52:27;100491.00;;;3.13;100.00
2268;BME280;11052;43.338;25.502;2023-11-21T06:54:54;100494.44;;;3.15;100.00
2268;BME280;11052;43.338;25.502;2023-11-21T06:57:23;100495.31;;;3.25;100.00
2268;BME280;11052;43.338;25.502;2023-11-21T06:59:51;100488.50;;;3.32;100.00
2268;BME280;11052;43.338;25.502;2023-11-21T07:02:19;100485.94;;;3.39;100.00
2268;BME280;11052;43.338;25.502;2023-11-21T07:04:46;100479.09;;;3.49;100.00
2268;BME280;11052;43.338;25.502;2023-11-21T07:07:13;100471.44;;;3.59;100.00
2268;BME280;11052;43.338;25.502;2023-11-21T07:09:40;100478.28;;;3.74;100.00
2268;BME280;11052;43.338;25.502;2023-11-21T07:12:07;100474.88;;;3.92;100.00
2268;BME280;11052;43.338;25.502;2023-11-21T07:14:36;100479.13;;;4.07;100.00
2268;BME280;11052;43.338;25.502;2023-11-21T07:17:06;100479.13;;;4.19;100.00
2268;BME280;11052;43.338;25.502;2023-11-21T07:19:33;100479.97;;;4.32;100.00
2268;BME280;11052;43.338;25.502;2023-11-21T07:22:01;100483.31;;;4.49;100.00
2268;BME280;11052;43.338;25.502;2023-11-21T07:24:29;100477.28;;;4.64;100.00
2268;BME280;11052;43.338;25.502;2023-11-21T07:26:57;100474.69;;;4.74;100.00
2268;BME280;11052;43.338;25.502;2023-11-21T07:29:24;100476.34;;;4.87;100.00
2268;BME280;11052;43.338;25.502;2023-11-21T07:31:52;100472.00;;;5.03;100.00
2268;BME280;11052;43.338;25.502;2023-11-21T07:34:21;100478.81;;;5.15;100.00
2268;BME280;11052;43.338;25.502;2023-11-21T07:36:48;100474.41;;;5.27;100.00
2268;BME280;11052;43.338;25.502;2023-11-21T07:39:15;100474.34;;;5.41;100.00
2268;BME280;11052;43.338;25.502;2023-11-21T07:41:43;100472.53;;;5.55;100.00
2268;BME280;11052;43.338;25.502;2023-11-21T07:44:15;100471.53;;;5.75;100.00
2268;BME280;11052;43.338;25.502;2023-11-21T07:46:43;100470.53;;;5.97;100.00
2268;BME280;11052;43.338;25.502;2023-11-21T07:49:11;100464.34;;;6.15;100.00
2268;BME280;11052;43.338;25.502;2023-11-21T07:51:42;100467.63;;;6.29;100.00
2268;BME280;11052;43.338;25.502;2023-11-21T07:54:09;100469.22;;;6.44;100.00
2268;BME280;11052;43.338;25.502;2023-11-21T07:56:36;100476.81;;;6.54;100.00
2268;BME280;11052;43.338;25.502;2023-11-21T07:59:04;100464.69;;;6.64;100.00
2268;BME280;11052;43.338;25.502;2023-11-21T08:01:31;100468.00;;;6.75;100.00
2268;BME280;11052;43.338;25.502;2023-11-21T08:03:58;100468.69;;;6.89;100.00
2268;BME280;11052;43.338;25.502;2023-11-21T08:06:29;100464.16;;;7.07;100.00
2268;BME280;11052;43.338;25.502;2023-11-21T08:08:57;100466.47;;;7.27;100.00
2268;BME280;11052;43.338;25.502;2023-11-21T08:11:25;100461.88;;;7.47;100.00
2268;BME280;11052;43.338;25.502;2023-11-21T08:13:54;100468.25;;;7.80;100.00
2268;BME280;11052;43.338;25.502;2023-11-21T08:16:22;100471.13;;;8.12;100.00
2268;BME280;11052;43.338;25.502;2023-11-21T08:18:49;100461.88;;;8.48;100.00
2268;BME280;11052;43.338;25.502;2023-11-21T08:21:17;100457.13;;;8.70;100.00
2268;BME280;11052;43.338;25.502;2023-11-21T08:23:44;100454.84;;;8.98;100.00
2268;BME280;11052;43.338;25.502;2023-11-21T08:26:15;100447.28;;;9.29;100.00
2268;BME280;11052;43.338;25.502;2023-11-21T08:28:44;100456.16;;;9.54;100.00
2268;BME280;11052;43.338;25.502;2023-11-21T08:31:11;100451.91;;;9.88;100.00
2268;BME280;11052;43.338;25.502;2023-11-21T08:33:39;100437.69;;;10.04;100.00
2268;BME280;11052;43.338;25.502;2023-11-21T08:36:07;100436.28;;;10.26;100.00
2268;BME280;11052;43.338;25.502;2023-11-21T08:38:36;100425.97;;;10.54;100.00
2268;BME280;11052;43.338;25.502;2023-11-21T08:41:05;100425.81;;;10.60;100.00
2268;BME280;11052;43.338;25.502;2023-11-21T08:43:36;100415.88;;;10.45;100.00
2268;BME280;11052;43.338;25.502;2023-11-21T08:46:05;100410.38;;;10.56;100.00
2268;BME280;11052;43.338;25.502;2023-11-21T08:48:35;100411.56;;;10.75;100.00
2268;BME280;11052;43.338;25.502;2023-11-21T08:51:02;100398.63;;;11.03;100.00
2268;BME280;11052;43.338;25.502;2023-11-21T08:53:30;100401.75;;;11.14;100.00
2268;BME280;11052;43.338;25.502;2023-11-21T08:55:58;100399.53;;;11.28;100.00
2268;BME280;11052;43.338;25.502;2023-11-21T08:58:26;100399.44;;;11.31;100.00
2268;BME280;11052;43.338;25.502;2023-11-21T09:00:54;100394.47;;;11.25;100.00
2268;BME280;11052;43.338;25.502;2023-11-21T09:03:21;100392.47;;;11.33;100.00
2268;BME280;11052;43.338;25.502;2023-11-21T09:05:49;100387.28;;;11.33;100.00
2268;BME280;11052;43.338;25.502;2023-11-21T09:08:16;100386.63;;;11.53;100.00
2268;BME280;11052;43.338;25.502;2023-11-21T09:10:43;100384.72;;;11.86;100.00
2268;BME280;11052;43.338;25.502;2023-11-21T09:13:13;100369.41;;;12.03;100.00
2268;BME280;11052;43.338;25.502;2023-11-21T09:15:43;100373.53;;;12.32;100.00
2268;BME280;11052;43.338;25.502;2023-11-21T09:18:13;100372.88;;;12.51;100.00
2268;BME280;11052;43.338;25.502;2023-11-21T09:20:41;100363.66;;;12.65;100.00
2268;BME280;11052;43.338;25.502;2023-11-21T09:23:09;100362.06;;;12.85;100.00
2268;BME280;11052;43.338;25.502;2023-11-21T09:25:37;100354.09;;;13.09;100.00
2268;BME280;11052;43.338;25.502;2023-11-21T09:28:05;100345.94;;;13.40;100.00
2268;BME280;11052;43.338;25.502;2023-11-21T09:30:34;100343.81;;;13.50;100.00
2268;BME280;11052;43.338;25.502;2023-11-21T09:33:01;100339.13;;;13.58;100.00
2268;BME280;11052;43.338;25.502;2023-11-21T09:35:30;100330.53;;;13.56;100.00
2268;BME280;11052;43.338;25.502;2023-11-21T09:37:57;100333.22;;;13.75;100.00
2268;BME280;11052;43.338;25.502;2023-11-21T09:40:24;100331.28;;;13.80;100.00
2268;BME280;11052;43.338;25.502;2023-11-21T09:42:55;100320.88;;;13.99;100.00
2268;BME280;11052;43.338;25.502;2023-11-21T09:45:26;100319.22;;;14.17;100.00
2268;BME280;11052;43.338;25.502;2023-11-21T09:47:54;100316.56;;;14.37;100.00
2268;BME280;11052;43.338;25.502;2023-11-21T09:50:22;100317.16;;;14.43;100.00
2268;BME280;11052;43.338;25.502;2023-11-21T09:52:58;100316.31;;;14.43;100.00
2268;BME280;11052;43.338;25.502;2023-11-21T09:55:34;100311.09;;;14.43;100.00
2268;BME280;11052;43.338;25.502;2023-11-21T09:58:03;100303.56;;;14.56;100.00
2268;BME280;11052;43.338;25.502;2023-11-21T10:00:33;100297.84;;;14.66;100.00
2268;BME280;11052;43.338;25.502;2023-11-21T10:03:01;100301.09;;;14.71;100.00
2268;BME280;11052;43.338;25.502;2023-11-21T10:05:29;100292.88;;;14.79;100.00
2268;BME280;11052;43.338;25.502;2023-11-21T10:08:01;100291.94;;;14.80;100.00
2268;BME280;11052;43.338;25.502;2023-11-21T10:10:30;100289.19;;;14.83;100.00
2268;BME280;11052;43.338;25.502;2023-11-21T10:13:01;100285.28;;;14.92;100.00
2268;BME280;11052;43.338;25.502;2023-11-21T10:15:33;100277.78;;;15.03;79.04
2268;BME280;11052;43.338;25.502;2023-11-21T10:18:02;100274.72;;;15.12;79.16
2268;BME280;11052;43.338;25.502;2023-11-21T10:20:31;100265.38;;;15.25;78.58
2268;BME280;11052;43.338;25.502;2023-11-21T10:23:01;100255.00;;;15.24;78.21
2268;BME280;11052;43.338;25.502;2023-11-21T10:25:29;100257.16;;;15.33;77.07
2268;BME280;11052;43.338;25.502;2023-11-21T10:27:58;100256.09;;;15.37;75.27
2268;BME280;11052;43.338;25.502;2023-11-21T10:30:32;100257.38;;;15.46;77.45
2268;BME280;11052;43.338;25.502;2023-11-21T10:33:03;100248.84;;;15.42;76.71
2268;BME280;11052;43.338;25.502;2023-11-21T10:35:42;100246.31;;;15.40;74.87
2268;BME280;11052;43.338;25.502;2023-11-21T10:38:14;100237.25;;;15.30;76.23
2268;BME280;11052;43.338;25.502;2023-11-21T10:40:41;100232.66;;;15.35;76.28
2268;BME280;11052;43.338;25.502;2023-11-21T10:43:12;100228.97;;;15.39;76.38
2268;BME280;11052;43.338;25.502;2023-11-21T10:45:41;100222.50;;;15.29;73.50
2268;BME280;11052;43.338;25.502;2023-11-21T10:48:09;100222.13;;;15.20;73.88
2268;BME280;11052;43.338;25.502;2023-11-21T10:50:37;100211.59;;;15.21;74.98
2268;BME280;11052;43.338;25.502;2023-11-21T10:53:05;100208.38;;;15.33;74.58
2268;BME280;11052;43.338;25.502;2023-11-21T10:55:34;100208.81;;;15.41;74.16
2268;BME280;11052;43.338;25.502;2023-11-21T10:58:02;100211.00;;;15.33;77.18
2268;BME280;11052;43.338;25.502;2023-11-21T11:00:31;100198.59;;;15.54;73.47
2268;BME280;11052;43.338;25.502;2023-11-21T11:02:59;100196.69;;;15.58;72.71
2268;BME280;11052;43.338;25.502;2023-11-21T11:05:28;100198.75;;;15.51;73.73
2268;BME280;11052;43.338;25.502;2023-11-21T11:07:59;100198.50;;;15.56;75.03
2268;BME280;11052;43.338;25.502;2023-11-21T11:10:27;100184.47;;;15.74;74.20
2268;BME280;11052;43.338;25.502;2023-11-21T11:12:57;100185.28;;;15.92;71.77
2268;BME280;11052;43.338;25.502;2023-11-21T11:15:25;100178.13;;;16.11;74.46
2268;BME280;11052;43.338;25.502;2023-11-21T11:17:53;100170.19;;;16.13;72.69
2268;BME280;11052;43.338;25.502;2023-11-21T11:20:23;100163.28;;;16.12;72.35
2268;BME280;11052;43.338;25.502;2023-11-21T11:23:04;100163.09;;;16.15;71.20
2268;BME280;11052;43.338;25.502;2023-11-21T11:25:52;100156.34;;;16.11;69.52
2268;BME280;11052;43.338;25.502;2023-11-21T11:28:28;100150.09;;;16.13;69.38
2268;BME280;11052;43.338;25.502;2023-11-21T11:31:02;100156.28;;;16.12;68.08
2268;BME280;11052;43.338;25.502;2023-11-21T11:33:37;100145.06;;;16.10;69.05
2268;BME280;11052;43.338;25.502;2023-11-21T11:36:10;100145.38;;;16.04;69.30
2268;BME280;11052;43.338;25.502;2023-11-21T11:38:45;100142.69;;;16.05;69.22
2268;BME280;11052;43.338;25.502;2023-11-21T11:41:24;100142.84;;;16.02;70.34
2268;BME280;11052;43.338;25.502;2023-11-21T11:43:54;100133.25;;;16.03;68.58
2268;BME280;11052;43.338;25.502;2023-11-21T11:46:39;100129.09;;;15.99;67.79
2268;BME280;11052;43.338;25.502;2023-11-21T11:49:07;100127.09;;;16.04;67.22
2268;BME280;11052;43.338;25.502;2023-11-21T11:51:34;100117.03;;;15.96;69.42
2268;BME280;11052;43.338;25.502;2023-11-21T11:54:02;100121.75;;;15.90;70.46
2268;BME280;11052;43.338;25.502;2023-11-21T11:56:33;100115.53;;;15.92;68.19
2268;BME280;11052;43.338;25.502;2023-11-21T11:59:04;100116.78;;;16.01;68.37
2268;BME280;11052;43.338;25.502;2023-11-21T12:01:34;100116.38;;;16.09;67.95
2268;BME280;11052;43.338;25.502;2023-11-21T12:04:24;100106.06;;;16.21;67.00
2268;BME280;11052;43.338;25.502;2023-11-21T12:06:57;100090.81;;;16.14;68.86
2268;BME280;11052;43.338;25.502;2023-11-21T12:09:28;100082.44;;;16.23;66.95
2268;BME280;11052;43.338;25.502;2023-11-21T12:11:55;100083.72;;;16.16;68.20
2268;BME280;11052;43.338;25.502;2023-11-21T12:14:24;100085.56;;;16.14;68.31
2268;BME280;11052;43.338;25.502;2023-11-21T12:16:52;100078.25;;;16.04;68.78
2268;BME280;11052;43.338;25.502;2023-11-21T12:19:19;100068.72;;;16.03;69.32
2268;BME280;11052;43.338;25.502;2023-11-21T12:21:48;100080.84;;;16.04;68.59
2268;BME280;11052;43.338;25.502;2023-11-21T12:24:16;100071.41;;;16.02;68.96
2268;BME280;11052;43.338;25.502;2023-11-21T12:26:43;100071.66;;;15.97;71.06
2268;BME280;11052;43.338;25.502;2023-11-21T12:29:11;100069.91;;;15.82;72.45
2268;BME280;11052;43.338;25.502;2023-11-21T12:31:40;100060.53;;;15.78;73.49
2268;BME280;11052;43.338;25.502;2023-11-21T12:34:07;100058.00;;;15.61;74.80
2268;BME280;11052;43.338;25.502;2023-11-21T12:36:37;100054.22;;;15.66;76.27
2268;BME280;11052;43.338;25.502;2023-11-21T12:39:05;100056.06;;;15.64;78.08
2268;BME280;11052;43.338;25.502;2023-11-21T12:41:35;100047.69;;;15.59;79.59
2268;BME280;11052;43.338;25.502;2023-11-21T12:44:02;100041.41;;;15.46;80.92
2268;BME280;11052;43.338;25.502;2023-11-21T12:46:29;100046.72;;;15.45;83.14
2268;BME280;11052;43.338;25.502;2023-11-21T12:49:00;100041.06;;;15.36;84.08
2268;BME280;11052;43.338;25.502;2023-11-21T12:51:27;100035.41;;;15.28;84.71
2268;BME280;11052;43.338;25.502;2023-11-21T12:53:56;100041.53;;;15.27;84.28